createdAt,value
2022-12-08T00:00:07.935Z,18.60
2022-12-08T00:03:34.479Z,18.27
2022-12-08T00:10:00.048Z,17.80
2022-12-08T00:13:03.082Z,18.20
2022-12-08T00:16:05.863Z,19.50
2022-12-08T00:19:11.322Z,17.58
2022-12-08T00:22:14.821Z,16.37
2022-12-08T00:25:17.892Z,16.87
2022-12-08T00:28:20.384Z,16.30
2022-12-08T00:31:23.406Z,17.05
2022-12-08T00:34:26.340Z,15.68
2022-12-08T00:40:31.798Z,16.37
2022-12-08T00:43:34.908Z,16.62
2022-12-08T00:46:37.663Z,18.77
2022-12-08T00:49:41.191Z,21.02
2022-12-08T00:52:43.743Z,21.48
2022-12-08T00:55:46.782Z,24.90
2022-12-08T00:58:49.470Z,24.97
2022-12-08T01:01:52.482Z,25.17
2022-12-08T01:04:54.943Z,24.40
2022-12-08T01:07:57.990Z,25.50
2022-12-08T01:11:09.340Z,27.37
2022-12-08T01:14:13.237Z,26.48
2022-12-08T01:17:15.747Z,25.83
2022-12-08T01:20:18.804Z,27.20
2022-12-08T01:23:22.639Z,27.57
2022-12-08T01:26:25.825Z,26.70
2022-12-08T01:29:28.374Z,26.87
2022-12-08T01:32:31.391Z,27.42
2022-12-08T01:35:34.459Z,30.07
2022-12-08T01:38:37.604Z,29.50
2022-12-08T01:41:40.226Z,31.50
2022-12-08T01:44:43.165Z,31.75
2022-12-08T01:47:50.130Z,30.20
2022-12-08T01:50:55.695Z,31.67
2022-12-08T01:53:58.252Z,34.55
2022-12-08T01:57:06.459Z,32.47
2022-12-08T02:00:12.834Z,33.83
2022-12-08T02:03:22.481Z,34.33
2022-12-08T02:06:27.386Z,32.95
2022-12-08T02:09:30.448Z,33.50
2022-12-08T02:12:33.060Z,33.37
2022-12-08T02:15:46.075Z,33.13
2022-12-08T02:19:30.226Z,35.10
2022-12-08T02:22:57.281Z,32.10
2022-12-08T02:26:33.846Z,33.47
2022-12-08T02:29:52.787Z,32.40
2022-12-08T02:33:13.950Z,36.15
2022-12-08T02:36:38.920Z,34.80
2022-12-08T02:39:58.200Z,32.80
2022-12-08T02:43:07.417Z,35.95
2022-12-08T02:46:21.199Z,34.03
2022-12-08T02:49:32.836Z,34.20
2022-12-08T02:52:40.696Z,35.40
2022-12-08T02:56:01.680Z,35.90
2022-12-08T02:59:10.006Z,32.40
2022-12-08T03:02:38.257Z,31.02
2022-12-08T03:05:53.243Z,29.90
2022-12-08T03:09:20.469Z,29.27
2022-12-08T03:12:31.603Z,30.65
2022-12-08T03:15:37.237Z,31.02
2022-12-08T03:18:44.335Z,30.83
2022-12-08T03:21:52.462Z,32.20
2022-12-08T03:24:56.556Z,33.03
2022-12-08T03:28:00.246Z,31.33
2022-12-08T03:31:07.546Z,31.05
2022-12-08T03:34:13.080Z,31.98
2022-12-08T03:37:16.291Z,31.73
2022-12-08T03:40:20.633Z,33.65
2022-12-08T03:43:23.067Z,32.65
2022-12-08T03:49:29.765Z,28.77
2022-12-08T03:52:32.795Z,32.30
2022-12-08T03:55:35.270Z,27.55
2022-12-08T03:58:38.238Z,28.85
2022-12-08T04:01:40.706Z,30.45
2022-12-08T04:04:44.159Z,29.10
2022-12-08T04:07:46.693Z,29.02
2022-12-08T04:10:49.776Z,30.00
2022-12-08T04:13:52.551Z,29.67
2022-12-08T04:16:55.612Z,30.12
2022-12-08T04:19:58.017Z,26.83
2022-12-08T04:23:01.027Z,29.80
2022-12-08T04:26:04.610Z,46.23
2022-12-08T04:29:07.645Z,34.42
2022-12-08T04:32:10.206Z,32.50
2022-12-08T04:35:13.271Z,30.02
2022-12-08T04:38:16.638Z,33.33
2022-12-08T04:41:19.834Z,37.72
2022-12-08T04:44:22.291Z,31.37
2022-12-08T04:47:25.547Z,29.90
2022-12-08T04:50:28.638Z,29.60
2022-12-08T04:53:31.905Z,28.48
2022-12-08T04:56:34.617Z,27.75
2022-12-08T04:59:37.710Z,27.10
2022-12-08T05:02:40.643Z,27.15
2022-12-08T05:08:46.061Z,27.80
2022-12-08T05:11:49.456Z,25.65
2022-12-08T05:14:52.028Z,29.67
2022-12-08T05:17:55.188Z,28.98
2022-12-08T05:20:57.673Z,29.00
2022-12-08T05:24:00.666Z,30.48
2022-12-08T05:27:03.270Z,29.80
2022-12-08T05:30:07.293Z,30.25
2022-12-08T05:33:09.886Z,29.35
2022-12-08T05:36:14.811Z,30.12
2022-12-08T05:39:17.435Z,29.48
2022-12-08T05:42:24.539Z,30.85
2022-12-08T05:45:27.534Z,29.58
2022-12-08T05:48:30.734Z,31.33
2022-12-08T05:51:33.398Z,29.08
2022-12-08T05:54:39.706Z,29.23
2022-12-08T05:57:42.196Z,30.77
2022-12-08T06:00:46.640Z,29.33
2022-12-08T06:03:49.774Z,30.20
2022-12-08T06:06:52.675Z,29.35
2022-12-08T06:09:55.379Z,28.00
2022-12-08T06:12:58.133Z,28.35
2022-12-08T06:16:07.331Z,28.70
2022-12-08T06:19:10.199Z,27.10
2022-12-08T06:22:12.915Z,29.92
2022-12-08T06:25:15.718Z,28.12
2022-12-08T06:28:18.898Z,29.10
2022-12-08T06:31:24.169Z,27.90
2022-12-08T06:34:27.116Z,28.20
2022-12-08T06:37:29.840Z,26.40
2022-12-08T06:40:32.765Z,27.48
2022-12-08T06:43:35.711Z,28.48
2022-12-08T06:46:38.434Z,28.10
2022-12-08T06:49:41.138Z,27.37
2022-12-08T06:52:54.200Z,29.33
2022-12-08T06:56:01.339Z,25.88
2022-12-08T06:59:04.407Z,29.27
2022-12-08T07:02:07.480Z,27.52
2022-12-08T07:05:10.285Z,26.75
2022-12-08T07:08:13.132Z,25.02
2022-12-08T07:11:21.109Z,27.87
2022-12-08T07:14:25.137Z,28.15
2022-12-08T07:17:27.831Z,25.85
2022-12-08T07:20:30.662Z,25.98
2022-12-08T07:23:33.797Z,29.37
2022-12-08T07:26:36.521Z,28.38
2022-12-08T07:29:39.239Z,27.05
2022-12-08T07:32:41.999Z,26.87
2022-12-08T07:35:49.098Z,27.90
2022-12-08T07:38:56.779Z,25.67
2022-12-08T07:41:59.782Z,27.48
2022-12-08T07:45:02.875Z,26.02
2022-12-08T07:48:06.116Z,27.85
2022-12-08T07:51:11.615Z,25.20
2022-12-08T07:54:16.873Z,28.58
2022-12-08T07:57:19.705Z,28.50
2022-12-08T08:00:22.628Z,28.60
2022-12-08T08:03:25.743Z,26.75
2022-12-08T08:06:28.776Z,25.83
2022-12-08T08:09:31.918Z,28.48
2022-12-08T08:12:34.589Z,24.63
2022-12-08T08:15:37.809Z,26.30
2022-12-08T08:18:40.797Z,26.87
2022-12-08T08:24:48.916Z,27.62
2022-12-08T08:27:52.091Z,26.58
2022-12-08T08:30:55.081Z,28.05
2022-12-08T08:34:00.444Z,28.27
2022-12-08T08:37:03.089Z,26.15
2022-12-08T08:43:09.393Z,28.12
2022-12-08T08:46:12.655Z,28.15
2022-12-08T08:49:15.150Z,29.23
2022-12-08T08:52:18.460Z,27.30
2022-12-08T08:55:21.078Z,28.85
2022-12-08T08:58:24.183Z,31.80
2022-12-08T09:01:28.175Z,29.93
2022-12-08T09:04:34.493Z,31.48
2022-12-08T09:07:37.152Z,30.53
2022-12-08T09:10:40.233Z,30.75
2022-12-08T09:13:42.873Z,29.55
2022-12-08T09:16:46.036Z,31.90
2022-12-08T09:19:48.512Z,32.73
2022-12-08T09:22:51.719Z,29.77
2022-12-08T09:25:54.236Z,28.43
2022-12-08T09:28:57.763Z,29.90
2022-12-08T09:32:00.340Z,28.98
2022-12-08T09:35:03.729Z,29.35
2022-12-08T09:38:06.191Z,29.50
2022-12-08T09:41:48.392Z,30.23
2022-12-08T09:44:51.754Z,27.23
2022-12-08T09:48:01.046Z,29.87
2022-12-08T09:51:05.001Z,28.02
2022-12-08T09:54:22.486Z,29.30
2022-12-08T09:57:25.855Z,26.02
2022-12-08T10:00:29.193Z,29.20
2022-12-08T10:03:31.921Z,30.83
2022-12-08T10:06:50.950Z,30.98
2022-12-08T10:10:19.955Z,32.35
2022-12-08T10:13:42.407Z,31.35
2022-12-08T10:16:49.993Z,28.85
2022-12-08T10:20:04.252Z,28.48
2022-12-08T10:23:13.844Z,29.50
2022-12-08T10:26:19.898Z,29.55
2022-12-08T10:29:22.815Z,24.33
2022-12-08T10:32:34.181Z,26.02
2022-12-08T10:35:43.094Z,27.15
2022-12-08T10:38:45.896Z,24.67
2022-12-08T10:41:51.170Z,26.48
2022-12-08T10:44:58.365Z,28.98
2022-12-08T10:48:04.612Z,27.92
2022-12-08T10:51:35.668Z,27.92
2022-12-08T10:54:42.966Z,25.00
2022-12-08T10:57:46.462Z,24.77
2022-12-08T11:00:53.572Z,22.27
2022-12-08T11:03:59.368Z,22.15
2022-12-08T11:07:04.771Z,24.52
2022-12-08T11:10:17.888Z,22.77
2022-12-08T11:13:27.590Z,20.73
2022-12-08T11:16:31.057Z,18.42
2022-12-08T11:19:39.134Z,14.60
2022-12-08T11:22:50.672Z,13.88
2022-12-08T11:25:56.220Z,14.48
2022-12-08T11:28:59.222Z,13.00
2022-12-08T11:32:17.853Z,13.65
2022-12-08T11:35:27.070Z,13.15
2022-12-08T11:38:33.160Z,15.35
2022-12-08T11:41:43.069Z,14.43
2022-12-08T11:44:53.556Z,14.85
2022-12-08T11:48:02.118Z,15.25
2022-12-08T11:51:31.164Z,14.35
2022-12-08T11:54:46.264Z,14.65
2022-12-08T11:57:52.031Z,15.57
2022-12-08T12:00:54.890Z,15.85
2022-12-08T12:04:23.205Z,15.57
2022-12-08T12:08:11.197Z,15.95
2022-12-08T12:11:45.721Z,15.73
2022-12-08T12:15:04.107Z,16.70
2022-12-08T12:18:16.270Z,15.23
2022-12-08T12:21:26.383Z,15.73
2022-12-08T12:24:36.245Z,15.90
2022-12-08T12:27:40.579Z,14.75
2022-12-08T12:31:18.459Z,17.37
2022-12-08T12:34:25.965Z,12.37
2022-12-08T12:37:41.749Z,15.68
2022-12-08T12:40:44.684Z,15.45
2022-12-08T12:44:09.333Z,14.55
2022-12-08T12:47:15.030Z,13.75
2022-12-08T12:50:39.058Z,13.43
2022-12-08T12:57:16.002Z,13.88
2022-12-08T13:00:24.279Z,13.32
2022-12-08T13:03:28.093Z,12.35
2022-12-08T13:06:48.301Z,14.10
2022-12-08T13:09:58.830Z,14.85
2022-12-08T13:13:21.970Z,14.93
2022-12-08T13:16:27.751Z,16.40
2022-12-08T13:19:33.523Z,16.85
2022-12-08T13:23:01.778Z,16.77
2022-12-08T13:26:20.708Z,15.98
2022-12-08T13:29:26.961Z,14.80
2022-12-08T13:32:39.035Z,15.30
2022-12-08T13:36:21.280Z,15.10
2022-12-08T13:39:39.350Z,14.10
2022-12-08T13:43:01.877Z,14.15
2022-12-08T13:47:02.834Z,14.45
2022-12-08T13:57:08.533Z,19.95
2022-12-08T14:00:20.683Z,18.10
2022-12-08T14:03:23.743Z,19.05
2022-12-08T14:06:36.137Z,19.75
2022-12-08T14:09:41.182Z,16.70
2022-12-08T14:12:47.911Z,17.67
2022-12-08T14:15:50.779Z,17.25
2022-12-08T14:18:53.628Z,20.92
2022-12-08T14:22:17.108Z,16.70
2022-12-08T14:25:21.651Z,14.90
2022-12-08T14:28:24.951Z,16.02
2022-12-08T14:31:29.299Z,16.15
2022-12-08T14:34:40.420Z,15.05
2022-12-08T14:37:46.550Z,15.52
2022-12-08T14:41:01.055Z,15.23
2022-12-08T14:44:22.913Z,14.25
2022-12-08T14:47:31.139Z,15.95
2022-12-08T14:50:37.027Z,15.27
2022-12-08T14:53:43.312Z,14.98
2022-12-08T14:56:52.312Z,16.08
2022-12-08T14:59:55.269Z,16.40
2022-12-08T15:02:58.101Z,17.73
2022-12-08T15:06:06.303Z,18.85
2022-12-08T15:09:18.503Z,19.73
2022-12-08T15:12:27.386Z,18.60
2022-12-08T15:15:32.756Z,16.10
2022-12-08T15:18:38.094Z,18.80
2022-12-08T15:21:41.607Z,17.37
2022-12-08T15:27:50.406Z,18.35
2022-12-08T15:30:54.292Z,18.45
2022-12-08T15:33:57.075Z,18.45
2022-12-08T15:36:59.838Z,18.60
2022-12-08T15:40:03.136Z,19.48
2022-12-08T15:43:06.235Z,18.42
2022-12-08T15:46:09.154Z,19.45
2022-12-08T15:49:23.601Z,19.92
2022-12-08T15:52:26.317Z,18.98
2022-12-08T15:55:31.124Z,18.12
2022-12-08T15:58:54.739Z,46.40
2022-12-08T16:01:58.436Z,20.15
2022-12-08T16:08:45.831Z,20.85
2022-12-08T16:12:08.230Z,22.30
2022-12-08T16:18:40.089Z,19.20
2022-12-08T16:25:22.455Z,17.90
2022-12-08T16:28:53.025Z,18.52
2022-12-08T16:31:50.270Z,18.55
2022-12-08T16:34:53.178Z,17.77
2022-12-08T16:41:17.519Z,19.20
2022-12-08T16:44:20.512Z,19.55
2022-12-08T16:47:22.941Z,19.42
2022-12-08T16:50:32.191Z,18.02
2022-12-08T16:53:34.637Z,16.95
2022-12-08T16:56:37.856Z,19.05
2022-12-08T16:59:40.471Z,17.13
2022-12-08T17:02:44.851Z,19.35
2022-12-08T17:05:47.366Z,17.50
2022-12-08T17:08:50.383Z,18.80
2022-12-08T17:11:52.843Z,18.93
2022-12-08T17:14:55.898Z,19.25
2022-12-08T17:17:58.420Z,18.10
2022-12-08T17:21:01.471Z,17.98
2022-12-08T17:24:04.676Z,18.83
2022-12-08T17:27:07.645Z,18.00
2022-12-08T17:30:12.536Z,16.87
2022-12-08T17:33:15.780Z,17.08
2022-12-08T17:36:18.290Z,18.35
2022-12-08T17:39:21.407Z,17.48
2022-12-08T17:42:26.077Z,17.63
2022-12-08T17:45:29.194Z,17.85
2022-12-08T17:48:31.821Z,17.50
2022-12-08T17:51:34.860Z,18.87
2022-12-08T17:54:38.211Z,17.13
2022-12-08T17:57:41.523Z,16.10
2022-12-08T18:00:44.051Z,16.73
2022-12-08T18:03:47.223Z,17.65
2022-12-08T18:06:49.720Z,16.60
2022-12-08T18:09:52.803Z,15.98
2022-12-08T18:12:55.599Z,17.70
2022-12-08T18:15:58.718Z,17.90
2022-12-08T18:19:01.217Z,18.10
2022-12-08T18:22:04.380Z,19.10
2022-12-08T18:25:07.393Z,18.10
2022-12-08T18:31:17.692Z,18.25
2022-12-08T18:34:20.870Z,17.15
2022-12-08T18:37:23.551Z,16.65
2022-12-08T18:40:27.968Z,17.27
2022-12-08T18:43:30.419Z,29.20
2022-12-08T18:46:33.484Z,25.45
2022-12-08T18:49:36.055Z,19.23
2022-12-08T18:52:39.162Z,18.48
2022-12-08T18:55:41.660Z,16.62
2022-12-08T18:58:44.671Z,16.58
2022-12-08T19:01:47.223Z,16.50
2022-12-08T19:04:50.347Z,17.92
2022-12-08T19:07:52.863Z,16.07
2022-12-08T19:10:55.964Z,15.73
2022-12-08T19:13:58.463Z,15.03
2022-12-08T19:17:01.882Z,15.52
2022-12-08T19:20:05.909Z,16.37
2022-12-08T19:23:09.187Z,17.62
2022-12-08T19:26:12.249Z,16.98
2022-12-08T19:29:15.533Z,16.12
2022-12-08T19:32:18.362Z,14.48
2022-12-08T19:35:21.770Z,16.70
2022-12-08T19:38:24.386Z,16.00
2022-12-08T19:41:46.792Z,15.95
2022-12-08T19:44:55.634Z,16.25
2022-12-08T19:47:58.733Z,16.00
2022-12-08T19:51:01.234Z,15.13
2022-12-08T19:54:04.463Z,16.67
2022-12-08T19:57:07.050Z,15.95
2022-12-08T20:00:12.456Z,17.98
2022-12-08T20:03:17.035Z,17.37
2022-12-08T20:06:27.531Z,16.23
2022-12-08T20:09:30.377Z,16.95
2022-12-08T20:12:33.166Z,17.77
2022-12-08T20:15:35.963Z,18.87
2022-12-08T20:18:39.978Z,17.30
2022-12-08T20:21:42.831Z,18.30
2022-12-08T20:24:49.161Z,19.12
2022-12-08T20:27:57.468Z,18.65
2022-12-08T20:31:00.800Z,16.98
2022-12-08T20:34:03.823Z,29.05
2022-12-08T20:37:06.604Z,20.42
2022-12-08T20:40:10.216Z,19.02
2022-12-08T20:46:17.464Z,19.10
2022-12-08T20:49:20.662Z,18.92
2022-12-08T20:52:23.852Z,17.77
2022-12-08T20:55:26.950Z,20.23
2022-12-08T20:58:29.807Z,20.17
2022-12-08T21:01:32.954Z,19.55
2022-12-08T21:04:36.146Z,19.85
2022-12-08T21:07:39.024Z,20.12
2022-12-08T21:10:43.938Z,20.02
2022-12-08T21:13:47.287Z,21.00
2022-12-08T21:16:50.976Z,20.35
2022-12-08T21:19:54.042Z,20.65
2022-12-08T21:22:56.995Z,21.50
2022-12-08T21:25:59.794Z,22.33
2022-12-08T21:29:02.624Z,21.60
2022-12-08T21:32:06.018Z,22.17
2022-12-08T21:38:12.065Z,20.58
2022-12-08T21:41:38.019Z,21.02
2022-12-08T21:44:41.108Z,21.27
2022-12-08T21:47:45.716Z,22.35
2022-12-08T21:50:48.750Z,22.95
2022-12-08T21:53:51.704Z,23.50
2022-12-08T21:56:54.429Z,21.85
2022-12-08T21:59:57.651Z,22.10
2022-12-08T22:03:00.650Z,22.33
2022-12-08T22:06:08.832Z,24.92
2022-12-08T22:09:13.478Z,23.87
2022-12-08T22:12:17.233Z,22.13
2022-12-08T22:18:22.608Z,24.33
2022-12-08T22:21:25.616Z,22.75
2022-12-08T22:24:31.816Z,22.87
2022-12-08T22:27:34.676Z,23.77
2022-12-08T22:30:39.319Z,23.65
2022-12-08T22:33:43.625Z,23.35
2022-12-08T22:36:46.469Z,25.08
2022-12-08T22:39:49.516Z,23.60
2022-12-08T22:42:52.405Z,22.50
2022-12-08T22:45:55.149Z,24.08
2022-12-08T22:48:58.005Z,25.37
2022-12-08T22:52:01.037Z,23.12
2022-12-08T22:55:04.129Z,23.10
2022-12-08T22:58:07.094Z,20.90
2022-12-08T23:01:23.622Z,23.95
2022-12-08T23:04:26.639Z,24.58
2022-12-08T23:07:29.590Z,23.48
2022-12-08T23:10:33.347Z,25.75
2022-12-08T23:16:40.456Z,25.58
2022-12-08T23:19:43.483Z,24.30
2022-12-08T23:22:46.340Z,23.38
2022-12-08T23:25:49.329Z,26.23
2022-12-08T23:28:52.756Z,26.27
2022-12-08T23:31:55.983Z,24.83
2022-12-08T23:34:59.016Z,25.12
2022-12-08T23:38:01.834Z,23.48
2022-12-08T23:41:06.652Z,24.65
2022-12-08T23:44:11.954Z,24.73
2022-12-08T23:47:14.727Z,24.55
2022-12-08T23:50:17.657Z,25.60
2022-12-08T23:53:20.440Z,25.15
2022-12-08T23:56:28.327Z,25.90
2022-12-08T23:59:33.338Z,25.85
